sensor_id;sensor_type;location;lat;lon;timestamp;temperature;humidity
28460;DHT22;32528;45.712;9.192;2023-03-31T00:00:34;12.60;99.90
28460;DHT22;32528;45.712;9.192;2023-03-31T00:02:39;12.50;99.90
28460;DHT22;32528;45.712;9.192;2023-03-31T00:04:42;12.60;99.90
28460;DHT22;32528;45.712;9.192;2023-03-31T00:06:46;12.60;99.90
28460;DHT22;32528;45.712;9.192;2023-03-31T00:08:47;12.60;99.90
28460;DHT22;32528;45.712;9.192;2023-03-31T00:10:51;12.60;99.90
28460;DHT22;32528;45.712;9.192;2023-03-31T00:12:52;12.60;99.90
28460;DHT22;32528;45.712;9.192;2023-03-31T00:14:53;12.60;99.90
28460;DHT22;32528;45.712;9.192;2023-03-31T00:16:53;12.60;99.90
28460;DHT22;32528;45.712;9.192;2023-03-31T00:18:54;12.60;99.90
28460;DHT22;32528;45.712;9.192;2023-03-31T00:21:05;12.60;99.90
28460;DHT22;32528;45.712;9.192;2023-03-31T00:23:07;12.60;99.90
28460;DHT22;32528;45.712;9.192;2023-03-31T00:25:10;12.60;99.90
28460;DHT22;32528;45.712;9.192;2023-03-31T00:27:11;12.70;99.90
28460;DHT22;32528;45.712;9.192;2023-03-31T00:29:12;12.60;99.90
28460;DHT22;32528;45.712;9.192;2023-03-31T00:31:13;12.70;99.90
28460;DHT22;32528;45.712;9.192;2023-03-31T00:33:15;12.70;99.90
28460;DHT22;32528;45.712;9.192;2023-03-31T00:35:17;12.60;99.90
28460;DHT22;32528;45.712;9.192;2023-03-31T00:37:18;12.60;99.90
28460;DHT22;32528;45.712;9.192;2023-03-31T00:39:19;12.60;99.90
28460;DHT22;32528;45.712;9.192;2023-03-31T00:41:19;12.70;99.90
28460;DHT22;32528;45.712;9.192;2023-03-31T00:45:31;12.70;99.90
28460;DHT22;32528;45.712;9.192;2023-03-31T00:47:33;12.70;99.90
28460;DHT22;32528;45.712;9.192;2023-03-31T00:49:42;12.70;99.90
28460;DHT22;32528;45.712;9.192;2023-03-31T00:51:44;12.60;99.90
28460;DHT22;32528;45.712;9.192;2023-03-31T00:53:52;12.70;99.90
28460;DHT22;32528;45.712;9.192;2023-03-31T00:56:06;12.60;99.90
28460;DHT22;32528;45.712;9.192;2023-03-31T00:58:10;12.60;99.90
28460;DHT22;32528;45.712;9.192;2023-03-31T01:00:14;12.70;99.90
28460;DHT22;32528;45.712;9.192;2023-03-31T01:02:16;12.70;99.90
28460;DHT22;32528;45.712;9.192;2023-03-31T01:04:19;12.70;99.90
28460;DHT22;32528;45.712;9.192;2023-03-31T01:06:24;12.60;99.90
28460;DHT22;32528;45.712;9.192;2023-03-31T01:08:26;12.70;99.90
28460;DHT22;32528;45.712;9.192;2023-03-31T01:10:28;12.60;99.90
28460;DHT22;32528;45.712;9.192;2023-03-31T01:12:33;12.60;99.90
28460;DHT22;32528;45.712;9.192;2023-03-31T01:14:36;12.60;99.90
28460;DHT22;32528;45.712;9.192;2023-03-31T01:16:37;12.60;99.90
28460;DHT22;32528;45.712;9.192;2023-03-31T01:18:39;12.60;99.90
28460;DHT22;32528;45.712;9.192;2023-03-31T01:23:18;12.60;99.90
28460;DHT22;32528;45.712;9.192;2023-03-31T01:36:39;12.50;99.90
28460;DHT22;32528;45.712;9.192;2023-03-31T01:43:28;12.50;99.90
28460;DHT22;32528;45.712;9.192;2023-03-31T01:45:59;12.60;99.90
28460;DHT22;32528;45.712;9.192;2023-03-31T01:48:15;12.60;99.90
28460;DHT22;32528;45.712;9.192;2023-03-31T01:52:48;12.40;99.90
28460;DHT22;32528;45.712;9.192;2023-03-31T01:55:15;12.40;99.90
28460;DHT22;32528;45.712;9.192;2023-03-31T01:57:33;12.40;99.90
28460;DHT22;32528;45.712;9.192;2023-03-31T01:59:46;12.40;99.90
28460;DHT22;32528;45.712;9.192;2023-03-31T02:01:59;12.40;99.90
28460;DHT22;32528;45.712;9.192;2023-03-31T02:06:12;12.40;99.90
28460;DHT22;32528;45.712;9.192;2023-03-31T02:08:19;12.40;99.90
28460;DHT22;32528;45.712;9.192;2023-03-31T02:10:23;12.40;99.90
28460;DHT22;32528;45.712;9.192;2023-03-31T02:12:26;12.40;99.90
28460;DHT22;32528;45.712;9.192;2023-03-31T02:14:29;12.50;99.90
28460;DHT22;32528;45.712;9.192;2023-03-31T02:16:32;12.50;99.90
28460;DHT22;32528;45.712;9.192;2023-03-31T02:18:34;12.50;99.90
28460;DHT22;32528;45.712;9.192;2023-03-31T02:20:41;12.60;99.90
28460;DHT22;32528;45.712;9.192;2023-03-31T02:22:48;12.60;99.90
28460;DHT22;32528;45.712;9.192;2023-03-31T02:24:51;12.60;99.90
28460;DHT22;32528;45.712;9.192;2023-03-31T02:27:06;12.60;99.90
28460;DHT22;32528;45.712;9.192;2023-03-31T02:29:09;12.60;99.90
28460;DHT22;32528;45.712;9.192;2023-03-31T02:33:14;12.50;99.90
28460;DHT22;32528;45.712;9.192;2023-03-31T02:35:19;12.50;99.90
28460;DHT22;32528;45.712;9.192;2023-03-31T02:37:21;12.50;99.90
28460;DHT22;32528;45.712;9.192;2023-03-31T02:39:31;12.60;99.90
28460;DHT22;32528;45.712;9.192;2023-03-31T02:41:32;12.60;99.90
28460;DHT22;32528;45.712;9.192;2023-03-31T02:43:33;12.60;99.90
28460;DHT22;32528;45.712;9.192;2023-03-31T02:45:50;12.60;99.90
28460;DHT22;32528;45.712;9.192;2023-03-31T02:47:51;12.50;99.90
28460;DHT22;32528;45.712;9.192;2023-03-31T02:54:14;12.60;99.90
28460;DHT22;32528;45.712;9.192;2023-03-31T02:58:54;12.50;99.90
28460;DHT22;32528;45.712;9.192;2023-03-31T03:01:34;12.50;99.90
28460;DHT22;32528;45.712;9.192;2023-03-31T03:10:35;12.40;99.90
28460;DHT22;32528;45.712;9.192;2023-03-31T03:15:12;12.50;99.90
28460;DHT22;32528;45.712;9.192;2023-03-31T03:17:22;12.40;99.90
28460;DHT22;32528;45.712;9.192;2023-03-31T03:19:25;12.40;99.90
28460;DHT22;32528;45.712;9.192;2023-03-31T03:21:27;12.40;99.90
28460;DHT22;32528;45.712;9.192;2023-03-31T03:23:28;12.40;99.90
28460;DHT22;32528;45.712;9.192;2023-03-31T03:25:29;12.40;99.90
28460;DHT22;32528;45.712;9.192;2023-03-31T03:27:30;12.40;99.90
28460;DHT22;32528;45.712;9.192;2023-03-31T03:29:32;12.40;99.90
28460;DHT22;32528;45.712;9.192;2023-03-31T03:31:33;12.40;99.90
28460;DHT22;32528;45.712;9.192;2023-03-31T03:33:34;12.50;99.90
28460;DHT22;32528;45.712;9.192;2023-03-31T03:35:35;12.50;99.90
28460;DHT22;32528;45.712;9.192;2023-03-31T03:37:36;12.40;99.90
28460;DHT22;32528;45.712;9.192;2023-03-31T03:39:37;12.30;99.90
28460;DHT22;32528;45.712;9.192;2023-03-31T03:41:38;12.30;99.90
28460;DHT22;32528;45.712;9.192;2023-03-31T03:43:39;12.40;99.90
28460;DHT22;32528;45.712;9.192;2023-03-31T03:45:39;12.40;99.90
28460;DHT22;32528;45.712;9.192;2023-03-31T03:47:40;12.40;99.90
28460;DHT22;32528;45.712;9.192;2023-03-31T03:49:42;12.40;99.90
28460;DHT22;32528;45.712;9.192;2023-03-31T03:51:43;12.50;99.90
28460;DHT22;32528;45.712;9.192;2023-03-31T03:53:44;12.50;99.90
28460;DHT22;32528;45.712;9.192;2023-03-31T03:55:45;12.40;99.90
28460;DHT22;32528;45.712;9.192;2023-03-31T03:57:48;12.40;99.90
28460;DHT22;32528;45.712;9.192;2023-03-31T03:59:49;12.40;99.90
28460;DHT22;32528;45.712;9.192;2023-03-31T04:01:51;12.40;99.90
28460;DHT22;32528;45.712;9.192;2023-03-31T04:03:52;12.40;99.90
28460;DHT22;32528;45.712;9.192;2023-03-31T04:05:52;12.40;99.90
28460;DHT22;32528;45.712;9.192;2023-03-31T04:07:53;12.40;99.90
28460;DHT22;32528;45.712;9.192;2023-03-31T04:09:54;12.40;99.90
28460;DHT22;32528;45.712;9.192;2023-03-31T04:11:55;12.50;99.90
28460;DHT22;32528;45.712;9.192;2023-03-31T04:13:55;12.50;99.90
28460;DHT22;32528;45.712;9.192;2023-03-31T04:15:56;12.50;99.90
28460;DHT22;32528;45.712;9.192;2023-03-31T04:17:58;12.50;99.90
28460;DHT22;32528;45.712;9.192;2023-03-31T04:20:09;12.50;99.90
28460;DHT22;32528;45.712;9.192;2023-03-31T04:22:11;12.50;99.90
28460;DHT22;32528;45.712;9.192;2023-03-31T04:24:14;12.50;99.90
28460;DHT22;32528;45.712;9.192;2023-03-31T04:26:21;12.50;99.90
28460;DHT22;32528;45.712;9.192;2023-03-31T04:28:26;12.50;99.90
28460;DHT22;32528;45.712;9.192;2023-03-31T04:30:35;12.50;99.90
28460;DHT22;32528;45.712;9.192;2023-03-31T04:32:39;12.50;99.90
28460;DHT22;32528;45.712;9.192;2023-03-31T04:34:39;12.40;99.90
28460;DHT22;32528;45.712;9.192;2023-03-31T04:36:45;12.40;99.90
28460;DHT22;32528;45.712;9.192;2023-03-31T04:38:50;12.40;99.90
28460;DHT22;32528;45.712;9.192;2023-03-31T04:40:53;12.30;99.90
28460;DHT22;32528;45.712;9.192;2023-03-31T04:42:55;12.40;99.90
28460;DHT22;32528;45.712;9.192;2023-03-31T04:44:58;12.40;99.90
28460;DHT22;32528;45.712;9.192;2023-03-31T04:47:00;12.40;99.90
28460;DHT22;32528;45.712;9.192;2023-03-31T04:49:02;12.40;99.90
28460;DHT22;32528;45.712;9.192;2023-03-31T04:51:05;12.40;99.90
28460;DHT22;32528;45.712;9.192;2023-03-31T04:53:06;12.40;99.90
28460;DHT22;32528;45.712;9.192;2023-03-31T04:55:07;12.40;99.90
28460;DHT22;32528;45.712;9.192;2023-03-31T04:57:08;12.40;99.90
28460;DHT22;32528;45.712;9.192;2023-03-31T04:59:09;12.40;99.90
28460;DHT22;32528;45.712;9.192;2023-03-31T05:01:10;12.40;99.90
28460;DHT22;32528;45.712;9.192;2023-03-31T05:03:13;12.40;99.90
28460;DHT22;32528;45.712;9.192;2023-03-31T05:05:13;12.40;99.90
28460;DHT22;32528;45.712;9.192;2023-03-31T05:07:15;12.40;99.90
28460;DHT22;32528;45.712;9.192;2023-03-31T05:09:16;12.40;99.90
28460;DHT22;32528;45.712;9.192;2023-03-31T05:11:16;12.40;99.90
28460;DHT22;32528;45.712;9.192;2023-03-31T05:13:17;12.40;99.90
28460;DHT22;32528;45.712;9.192;2023-03-31T05:15:19;12.40;99.90
28460;DHT22;32528;45.712;9.192;2023-03-31T05:17:20;12.40;99.90
28460;DHT22;32528;45.712;9.192;2023-03-31T05:19:21;12.50;99.90
28460;DHT22;32528;45.712;9.192;2023-03-31T05:21:22;12.50;99.90
28460;DHT22;32528;45.712;9.192;2023-03-31T05:23:23;12.50;99.90
28460;DHT22;32528;45.712;9.192;2023-03-31T05:25:24;12.50;99.90
28460;DHT22;32528;45.712;9.192;2023-03-31T05:27:25;12.60;99.90
28460;DHT22;32528;45.712;9.192;2023-03-31T05:29:26;12.60;99.90
28460;DHT22;32528;45.712;9.192;2023-03-31T05:31:27;12.50;99.90
28460;DHT22;32528;45.712;9.192;2023-03-31T05:33:28;12.60;99.90
28460;DHT22;32528;45.712;9.192;2023-03-31T05:35:29;12.50;99.90
28460;DHT22;32528;45.712;9.192;2023-03-31T05:37:30;12.50;99.90
28460;DHT22;32528;45.712;9.192;2023-03-31T05:39:31;12.50;99.90
28460;DHT22;32528;45.712;9.192;2023-03-31T05:41:32;12.50;99.90
28460;DHT22;32528;45.712;9.192;2023-03-31T05:43:34;12.40;99.90
28460;DHT22;32528;45.712;9.192;2023-03-31T05:45:35;12.50;99.90
28460;DHT22;32528;45.712;9.192;2023-03-31T05:47:37;12.50;99.90
28460;DHT22;32528;45.712;9.192;2023-03-31T05:49:38;12.50;99.90
28460;DHT22;32528;45.712;9.192;2023-03-31T05:51:40;12.60;99.90
28460;DHT22;32528;45.712;9.192;2023-03-31T05:53:40;12.60;99.90
28460;DHT22;32528;45.712;9.192;2023-03-31T05:55:42;12.60;99.90
28460;DHT22;32528;45.712;9.192;2023-03-31T05:57:43;12.60;99.90
28460;DHT22;32528;45.712;9.192;2023-03-31T05:59:43;12.60;99.90
28460;DHT22;32528;45.712;9.192;2023-03-31T06:01:44;12.60;99.90
28460;DHT22;32528;45.712;9.192;2023-03-31T06:03:45;12.70;99.90
28460;DHT22;32528;45.712;9.192;2023-03-31T06:05:47;12.70;99.90
28460;DHT22;32528;45.712;9.192;2023-03-31T06:07:48;13.00;99.90
28460;DHT22;32528;45.712;9.192;2023-03-31T06:09:49;13.00;99.90
28460;DHT22;32528;45.712;9.192;2023-03-31T06:11:52;13.10;99.90
28460;DHT22;32528;45.712;9.192;2023-03-31T06:13:53;13.10;99.90
28460;DHT22;32528;45.712;9.192;2023-03-31T06:15:55;13.10;99.90
28460;DHT22;32528;45.712;9.192;2023-03-31T06:17:56;13.20;99.90
28460;DHT22;32528;45.712;9.192;2023-03-31T06:19:57;13.20;99.90
28460;DHT22;32528;45.712;9.192;2023-03-31T06:21:58;13.10;99.90
28460;DHT22;32528;45.712;9.192;2023-03-31T06:23:59;13.10;99.90
28460;DHT22;32528;45.712;9.192;2023-03-31T06:26:05;13.10;99.90
28460;DHT22;32528;45.712;9.192;2023-03-31T06:28:08;13.00;99.90
28460;DHT22;32528;45.712;9.192;2023-03-31T06:30:09;13.00;99.90
28460;DHT22;32528;45.712;9.192;2023-03-31T06:32:10;13.00;99.90
28460;DHT22;32528;45.712;9.192;2023-03-31T06:34:11;13.00;99.90
28460;DHT22;32528;45.712;9.192;2023-03-31T06:36:14;13.00;99.90
28460;DHT22;32528;45.712;9.192;2023-03-31T06:38:15;13.00;99.90
28460;DHT22;32528;45.712;9.192;2023-03-31T06:40:16;12.90;99.90
28460;DHT22;32528;45.712;9.192;2023-03-31T06:42:17;12.90;99.90
28460;DHT22;32528;45.712;9.192;2023-03-31T06:44:19;12.90;99.90
28460;DHT22;32528;45.712;9.192;2023-03-31T06:46:22;13.00;99.90
28460;DHT22;32528;45.712;9.192;2023-03-31T06:48:23;13.10;99.90
28460;DHT22;32528;45.712;9.192;2023-03-31T06:50:24;13.10;99.90
28460;DHT22;32528;45.712;9.192;2023-03-31T06:52:25;13.10;99.90
28460;DHT22;32528;45.712;9.192;2023-03-31T06:54:26;13.20;99.90
28460;DHT22;32528;45.712;9.192;2023-03-31T06:56:27;13.20;99.90
28460;DHT22;32528;45.712;9.192;2023-03-31T06:58:27;13.20;99.90
28460;DHT22;32528;45.712;9.192;2023-03-31T07:00:31;13.40;99.90
28460;DHT22;32528;45.712;9.192;2023-03-31T07:02:32;13.40;99.90
28460;DHT22;32528;45.712;9.192;2023-03-31T07:04:33;13.50;99.90
28460;DHT22;32528;45.712;9.192;2023-03-31T07:06:34;13.60;99.90
28460;DHT22;32528;45.712;9.192;2023-03-31T07:08:35;13.60;99.90
28460;DHT22;32528;45.712;9.192;2023-03-31T07:10:36;13.60;99.90
28460;DHT22;32528;45.712;9.192;2023-03-31T07:12:36;13.70;99.90
28460;DHT22;32528;45.712;9.192;2023-03-31T07:14:37;13.70;99.90
28460;DHT22;32528;45.712;9.192;2023-03-31T07:16:38;13.70;99.90
28460;DHT22;32528;45.712;9.192;2023-03-31T07:18:39;13.70;99.90
28460;DHT22;32528;45.712;9.192;2023-03-31T07:20:42;13.70;99.90
28460;DHT22;32528;45.712;9.192;2023-03-31T07:22:47;13.80;99.90
28460;DHT22;32528;45.712;9.192;2023-03-31T07:24:48;13.80;99.90
28460;DHT22;32528;45.712;9.192;2023-03-31T07:26:49;13.90;99.90
28460;DHT22;32528;45.712;9.192;2023-03-31T07:28:51;13.80;99.90
28460;DHT22;32528;45.712;9.192;2023-03-31T07:30:52;14.00;99.90
28460;DHT22;32528;45.712;9.192;2023-03-31T07:32:53;14.10;99.90
28460;DHT22;32528;45.712;9.192;2023-03-31T07:34:54;14.20;99.90
28460;DHT22;32528;45.712;9.192;2023-03-31T07:37:00;14.40;99.90
28460;DHT22;32528;45.712;9.192;2023-03-31T07:39:01;14.40;99.90
28460;DHT22;32528;45.712;9.192;2023-03-31T07:41:01;14.40;99.90
28460;DHT22;32528;45.712;9.192;2023-03-31T07:43:02;14.50;99.90
28460;DHT22;32528;45.712;9.192;2023-03-31T07:45:03;14.40;99.90
28460;DHT22;32528;45.712;9.192;2023-03-31T07:47:05;14.50;99.40
28460;DHT22;32528;45.712;9.192;2023-03-31T07:49:06;14.60;99.10
28460;DHT22;32528;45.712;9.192;2023-03-31T07:51:07;14.60;98.60
28460;DHT22;32528;45.712;9.192;2023-03-31T07:53:11;14.60;98.40
28460;DHT22;32528;45.712;9.192;2023-03-31T07:55:14;14.60;98.30
28460;DHT22;32528;45.712;9.192;2023-03-31T07:57:16;14.70;98.60
28460;DHT22;32528;45.712;9.192;2023-03-31T07:59:19;14.70;98.30
28460;DHT22;32528;45.712;9.192;2023-03-31T08:01:21;14.70;98.10
28460;DHT22;32528;45.712;9.192;2023-03-31T08:03:25;14.70;97.40
28460;DHT22;32528;45.712;9.192;2023-03-31T08:05:27;14.70;97.00
28460;DHT22;32528;45.712;9.192;2023-03-31T08:07:28;14.70;96.80
28460;DHT22;32528;45.712;9.192;2023-03-31T08:09:31;14.70;96.70
28460;DHT22;32528;45.712;9.192;2023-03-31T08:11:32;14.60;96.60
28460;DHT22;32528;45.712;9.192;2023-03-31T08:13:33;14.70;96.40
28460;DHT22;32528;45.712;9.192;2023-03-31T08:15:34;14.70;96.40
28460;DHT22;32528;45.712;9.192;2023-03-31T08:17:35;14.60;96.00
28460;DHT22;32528;45.712;9.192;2023-03-31T08:19:36;14.60;96.40
28460;DHT22;32528;45.712;9.192;2023-03-31T08:21:38;14.70;96.60
28460;DHT22;32528;45.712;9.192;2023-03-31T08:23:38;14.80;96.40
28460;DHT22;32528;45.712;9.192;2023-03-31T08:25:39;15.00;96.20
28460;DHT22;32528;45.712;9.192;2023-03-31T08:27:40;15.20;96.10
28460;DHT22;32528;45.712;9.192;2023-03-31T08:29:41;15.30;95.40
28460;DHT22;32528;45.712;9.192;2023-03-31T08:31:41;15.40;94.90
28460;DHT22;32528;45.712;9.192;2023-03-31T08:33:44;15.40;94.80
28460;DHT22;32528;45.712;9.192;2023-03-31T08:35:45;15.50;94.90
28460;DHT22;32528;45.712;9.192;2023-03-31T08:37:45;15.60;94.60
28460;DHT22;32528;45.712;9.192;2023-03-31T08:39:47;15.50;94.50
28460;DHT22;32528;45.712;9.192;2023-03-31T08:42:01;15.50;94.50
28460;DHT22;32528;45.712;9.192;2023-03-31T08:44:10;15.50;94.30
28460;DHT22;32528;45.712;9.192;2023-03-31T08:46:15;15.50;94.70
28460;DHT22;32528;45.712;9.192;2023-03-31T08:50:29;15.60;93.90
28460;DHT22;32528;45.712;9.192;2023-03-31T08:52:37;15.70;93.70
28460;DHT22;32528;45.712;9.192;2023-03-31T08:54:48;15.90;93.40
28460;DHT22;32528;45.712;9.192;2023-03-31T08:56:51;16.10;92.80
28460;DHT22;32528;45.712;9.192;2023-03-31T08:58:53;16.20;92.70
28460;DHT22;32528;45.712;9.192;2023-03-31T09:01:02;16.30;92.30
28460;DHT22;32528;45.712;9.192;2023-03-31T09:03:21;16.30;92.20
28460;DHT22;32528;45.712;9.192;2023-03-31T09:05:39;16.30;92.00
28460;DHT22;32528;45.712;9.192;2023-03-31T09:07:57;16.20;91.60
28460;DHT22;32528;45.712;9.192;2023-03-31T09:12:59;15.90;92.20
28460;DHT22;32528;45.712;9.192;2023-03-31T09:15:16;15.90;92.20
28460;DHT22;32528;45.712;9.192;2023-03-31T09:17:33;15.90;92.60
28460;DHT22;32528;45.712;9.192;2023-03-31T09:19:40;16.10;92.60
28460;DHT22;32528;45.712;9.192;2023-03-31T09:21:49;16.10;92.30
28460;DHT22;32528;45.712;9.192;2023-03-31T09:24:43;16.00;92.30
28460;DHT22;32528;45.712;9.192;2023-03-31T09:26:25;15.90;91.90
28460;DHT22;32528;45.712;9.192;2023-03-31T09:28:38;15.80;92.10
28460;DHT22;32528;45.712;9.192;2023-03-31T09:30:40;15.60;92.90
28460;DHT22;32528;45.712;9.192;2023-03-31T09:32:42;15.60;92.50
28460;DHT22;32528;45.712;9.192;2023-03-31T09:34:45;15.60;92.40
28460;DHT22;32528;45.712;9.192;2023-03-31T09:36:46;15.70;92.40
28460;DHT22;32528;45.712;9.192;2023-03-31T09:38:47;15.70;92.40
28460;DHT22;32528;45.712;9.192;2023-03-31T09:40:48;15.60;92.40
28460;DHT22;32528;45.712;9.192;2023-03-31T09:43:22;15.50;92.90
28460;DHT22;32528;45.712;9.192;2023-03-31T09:45:24;15.60;92.40
28460;DHT22;32528;45.712;9.192;2023-03-31T09:47:31;15.70;92.20
28460;DHT22;32528;45.712;9.192;2023-03-31T09:49:35;15.70;92.80
28460;DHT22;32528;45.712;9.192;2023-03-31T09:51:36;16.00;92.80
28460;DHT22;32528;45.712;9.192;2023-03-31T09:53:52;16.10;92.60
28460;DHT22;32528;45.712;9.192;2023-03-31T09:56:00;16.00;91.50
28460;DHT22;32528;45.712;9.192;2023-03-31T09:58:01;16.00;91.70
28460;DHT22;32528;45.712;9.192;2023-03-31T10:02:48;15.80;91.80
28460;DHT22;32528;45.712;9.192;2023-03-31T10:04:50;15.70;92.20
28460;DHT22;32528;45.712;9.192;2023-03-31T10:06:53;15.80;92.50
28460;DHT22;32528;45.712;9.192;2023-03-31T10:13:08;15.90;92.40
28460;DHT22;32528;45.712;9.192;2023-03-31T10:15:28;16.10;92.10
28460;DHT22;32528;45.712;9.192;2023-03-31T10:17:28;16.10;91.30
28460;DHT22;32528;45.712;9.192;2023-03-31T10:19:35;16.10;91.40
28460;DHT22;32528;45.712;9.192;2023-03-31T10:21:38;16.10;91.40
28460;DHT22;32528;45.712;9.192;2023-03-31T10:23:45;16.00;91.50
28460;DHT22;32528;45.712;9.192;2023-03-31T10:25:47;16.00;91.40
28460;DHT22;32528;45.712;9.192;2023-03-31T10:27:52;15.80;91.70
28460;DHT22;32528;45.712;9.192;2023-03-31T10:29:57;15.80;91.90
28460;DHT22;32528;45.712;9.192;2023-03-31T10:32:03;15.70;92.00
28460;DHT22;32528;45.712;9.192;2023-03-31T10:34:12;15.60;92.10
28460;DHT22;32528;45.712;9.192;2023-03-31T10:36:25;15.50;92.10
28460;DHT22;32528;45.712;9.192;2023-03-31T10:38:47;15.60;91.90
28460;DHT22;32528;45.712;9.192;2023-03-31T10:40:52;15.70;91.60
28460;DHT22;32528;45.712;9.192;2023-03-31T10:45:24;15.90;91.50
28460;DHT22;32528;45.712;9.192;2023-03-31T10:47:32;16.10;91.10
28460;DHT22;32528;45.712;9.192;2023-03-31T10:49:37;16.20;90.90
28460;DHT22;32528;45.712;9.192;2023-03-31T10:51:56;16.20;91.50
28460;DHT22;32528;45.712;9.192;2023-03-31T10:54:00;16.10;91.30
28460;DHT22;32528;45.712;9.192;2023-03-31T11:20:48;16.20;90.60
28460;DHT22;32528;45.712;9.192;2023-03-31T11:34:57;15.50;92.40
28460;DHT22;32528;45.712;9.192;2023-03-31T11:39:34;15.30;92.50
28460;DHT22;32528;45.712;9.192;2023-03-31T11:41:39;15.30;92.50
28460;DHT22;32528;45.712;9.192;2023-03-31T11:43:49;15.20;92.40
28460;DHT22;32528;45.712;9.192;2023-03-31T11:46:34;15.10;92.50
28460;DHT22;32528;45.712;9.192;2023-03-31T11:48:44;15.10;92.80
28460;DHT22;32528;45.712;9.192;2023-03-31T11:50:47;15.10;92.70
28460;DHT22;32528;45.712;9.192;2023-03-31T11:53:12;15.10;92.80
28460;DHT22;32528;45.712;9.192;2023-03-31T11:55:17;15.00;92.90
28460;DHT22;32528;45.712;9.192;2023-03-31T11:58:01;15.00;93.00
28460;DHT22;32528;45.712;9.192;2023-03-31T12:04:39;14.90;93.30
28460;DHT22;32528;45.712;9.192;2023-03-31T12:06:43;14.80;93.30
28460;DHT22;32528;45.712;9.192;2023-03-31T12:11:24;14.70;93.60
28460;DHT22;32528;45.712;9.192;2023-03-31T12:13:55;14.80;93.90
28460;DHT22;32528;45.712;9.192;2023-03-31T12:16:11;14.80;93.60
28460;DHT22;32528;45.712;9.192;2023-03-31T12:18:45;14.90;93.80
28460;DHT22;32528;45.712;9.192;2023-03-31T12:20:58;14.80;93.60
28460;DHT22;32528;45.712;9.192;2023-03-31T12:23:03;14.90;93.60
28460;DHT22;32528;45.712;9.192;2023-03-31T12:25:14;14.80;93.50
28460;DHT22;32528;45.712;9.192;2023-03-31T12:27:37;14.80;93.70
28460;DHT22;32528;45.712;9.192;2023-03-31T12:29:45;14.80;94.00
28460;DHT22;32528;45.712;9.192;2023-03-31T12:31:49;14.70;93.90
28460;DHT22;32528;45.712;9.192;2023-03-31T12:34:03;14.70;94.00
28460;DHT22;32528;45.712;9.192;2023-03-31T12:38:28;14.70;94.20
28460;DHT22;32528;45.712;9.192;2023-03-31T12:40:55;14.60;94.30
28460;DHT22;32528;45.712;9.192;2023-03-31T12:45:30;14.60;94.40
28460;DHT22;32528;45.712;9.192;2023-03-31T12:49:51;14.60;94.20
28460;DHT22;32528;45.712;9.192;2023-03-31T12:56:15;14.70;94.00
28460;DHT22;32528;45.712;9.192;2023-03-31T13:00:29;14.70;94.30
28460;DHT22;32528;45.712;9.192;2023-03-31T13:02:30;14.70;94.10
28460;DHT22;32528;45.712;9.192;2023-03-31T13:04:30;14.70;94.40
28460;DHT22;32528;45.712;9.192;2023-03-31T13:08:50;14.70;94.20
28460;DHT22;32528;45.712;9.192;2023-03-31T13:10:58;14.70;94.00
28460;DHT22;32528;45.712;9.192;2023-03-31T13:13:05;14.60;93.90
28460;DHT22;32528;45.712;9.192;2023-03-31T13:15:13;14.60;94.00
28460;DHT22;32528;45.712;9.192;2023-03-31T13:17:32;14.60;94.00
28460;DHT22;32528;45.712;9.192;2023-03-31T13:19:35;14.60;94.00
28460;DHT22;32528;45.712;9.192;2023-03-31T13:21:56;14.60;94.00
28460;DHT22;32528;45.712;9.192;2023-03-31T13:24:01;14.60;94.00
28460;DHT22;32528;45.712;9.192;2023-03-31T13:26:02;14.60;94.00
28460;DHT22;32528;45.712;9.192;2023-03-31T13:28:10;14.60;94.30
28460;DHT22;32528;45.712;9.192;2023-03-31T13:32:36;14.50;94.70
28460;DHT22;32528;45.712;9.192;2023-03-31T13:34:39;14.40;94.50
28460;DHT22;32528;45.712;9.192;2023-03-31T13:43:40;14.30;94.90
28460;DHT22;32528;45.712;9.192;2023-03-31T13:45:59;14.30;94.70
28460;DHT22;32528;45.712;9.192;2023-03-31T13:48:13;14.30;94.90
28460;DHT22;32528;45.712;9.192;2023-03-31T13:50:36;14.30;95.10
28460;DHT22;32528;45.712;9.192;2023-03-31T13:55:31;14.30;95.90
28460;DHT22;32528;45.712;9.192;2023-03-31T14:05:00;14.20;96.70
28460;DHT22;32528;45.712;9.192;2023-03-31T14:07:08;14.20;97.00
28460;DHT22;32528;45.712;9.192;2023-03-31T14:09:13;14.10;96.80
28460;DHT22;32528;45.712;9.192;2023-03-31T14:11:29;14.10;96.60
28460;DHT22;32528;45.712;9.192;2023-03-31T14:13:30;14.00;96.60
28460;DHT22;32528;45.712;9.192;2023-03-31T14:15:33;14.10;96.70
28460;DHT22;32528;45.712;9.192;2023-03-31T14:17:37;14.10;96.80
28460;DHT22;32528;45.712;9.192;2023-03-31T14:22:27;14.20;97.10
28460;DHT22;32528;45.712;9.192;2023-03-31T14:25:01;14.20;97.20
28460;DHT22;32528;45.712;9.192;2023-03-31T14:36:26;14.10;97.40
28460;DHT22;32528;45.712;9.192;2023-03-31T14:38:30;14.00;97.40
28460;DHT22;32528;45.712;9.192;2023-03-31T14:40:31;14.00;97.30
28460;DHT22;32528;45.712;9.192;2023-03-31T14:42:39;14.10;97.40
28460;DHT22;32528;45.712;9.192;2023-03-31T14:44:42;14.10;97.30
28460;DHT22;32528;45.712;9.192;2023-03-31T14:46:45;14.10;97.40
28460;DHT22;32528;45.712;9.192;2023-03-31T14:48:47;14.00;97.70
28460;DHT22;32528;45.712;9.192;2023-03-31T14:50:56;13.80;98.10
28460;DHT22;32528;45.712;9.192;2023-03-31T14:52:57;13.70;98.20
28460;DHT22;32528;45.712;9.192;2023-03-31T14:54:59;13.70;98.20
28460;DHT22;32528;45.712;9.192;2023-03-31T14:57:00;13.70;98.30
28460;DHT22;32528;45.712;9.192;2023-03-31T14:59:02;13.70;98.50
28460;DHT22;32528;45.712;9.192;2023-03-31T15:01:06;13.60;98.50
28460;DHT22;32528;45.712;9.192;2023-03-31T15:03:12;13.70;98.70
28460;DHT22;32528;45.712;9.192;2023-03-31T15:05:35;13.60;98.90
28460;DHT22;32528;45.712;9.192;2023-03-31T15:07:39;13.60;99.20
28460;DHT22;32528;45.712;9.192;2023-03-31T15:09:45;13.70;99.30
28460;DHT22;32528;45.712;9.192;2023-03-31T15:11:59;13.60;99.30
28460;DHT22;32528;45.712;9.192;2023-03-31T15:14:01;13.60;99.20
28460;DHT22;32528;45.712;9.192;2023-03-31T15:18:38;13.50;99.70
28460;DHT22;32528;45.712;9.192;2023-03-31T15:20:40;13.50;99.70
28460;DHT22;32528;45.712;9.192;2023-03-31T15:22:42;13.40;99.90
28460;DHT22;32528;45.712;9.192;2023-03-31T15:24:43;13.40;99.90
28460;DHT22;32528;45.712;9.192;2023-03-31T15:27:01;13.40;99.90
28460;DHT22;32528;45.712;9.192;2023-03-31T15:29:12;13.40;99.90
28460;DHT22;32528;45.712;9.192;2023-03-31T15:31:17;13.60;99.90
28460;DHT22;32528;45.712;9.192;2023-03-31T15:33:32;13.70;99.80
28460;DHT22;32528;45.712;9.192;2023-03-31T15:35:35;13.70;99.60
28460;DHT22;32528;45.712;9.192;2023-03-31T15:37:39;13.70;99.50
28460;DHT22;32528;45.712;9.192;2023-03-31T15:39:44;13.60;99.50
28460;DHT22;32528;45.712;9.192;2023-03-31T15:41:47;13.70;99.70
28460;DHT22;32528;45.712;9.192;2023-03-31T15:44:06;13.80;99.50